Time;durP1;ratioP1;P1;durP2;ratioP2;P2;SDS_P1;SDS_P2;PMS_P1;PMS_P2;Temp;Humidity;BMP_temperature;BMP_pressure;BME280_temperature;BME280_humidity;BME280_pressure;Samples;Min_cycle;Max_cycle;Signal;HPM_P1;HPM_P2
2023/01/17 00:00:20;;;;;;;87.70;46.10;;;;;;;6.00;69.25;99147.53;4869445;29;20468;-60
2023/01/17 00:02:56;;;;;;;89.88;47.40;;;;;;;6.08;69.07;99160.72;4853018;29;20056;-59
2023/01/17 00:11:52;;;;;;;90.93;47.03;;;;;;;5.94;70.09;99162.09;4861275;29;20618;-60
2023/01/17 00:14:34;;;;;;;91.15;46.60;;;;;;;5.79;70.82;99168.84;4863351;29;20058;-60
2023/01/17 00:17:25;;;;;;;93.78;48.63;;;;;;;5.62;70.79;99157.34;4853172;29;20137;-61
2023/01/17 00:26:23;;;;;;;135.95;69.05;;;;;;;6.10;69.13;99151.72;4853647;29;20048;-60
2023/01/17 01:35:29;;;;;;;94.25;45.97;;;;;;;5.76;65.58;99192.78;4802282;29;20829;-60
2023/01/17 01:38:25;;;;;;;101.10;46.83;;;;;;;5.69;64.71;99202.25;4803792;29;20049;-61
2023/01/17 01:41:01;;;;;;;90.20;46.10;;;;;;;5.68;66.22;99205.84;4815658;29;20130;-61
2023/01/17 01:44:00;;;;;;;96.07;49.60;;;;;;;5.89;65.28;99206.41;4837778;29;20060;-61
2023/01/17 01:46:48;;;;;;;94.70;48.95;;;;;;;5.51;65.95;99215.38;4844089;29;20516;-61
2023/01/17 01:49:37;;;;;;;101.72;47.40;;;;;;;5.41;66.59;99223.28;4870668;29;20415;-61
2023/01/17 01:52:21;;;;;;;94.32;49.03;;;;;;;5.58;66.32;99216.41;4862828;29;20054;-62
2023/01/17 01:55:24;;;;;;;96.35;50.53;;;;;;;5.52;66.75;99218.81;4864375;29;20062;-61
2023/01/17 01:58:08;;;;;;;110.57;52.15;;;;;;;5.74;65.38;99216.59;4858262;29;20152;-61
2023/01/17 02:01:05;;;;;;;89.22;49.63;;;;;;;5.64;66.96;99220.25;4857456;29;20057;-61
2023/01/17 02:03:42;;;;;;;103.68;51.65;;;;;;;5.58;66.49;99226.94;4873927;29;20045;-61
2023/01/17 02:06:35;;;;;;;98.15;53.20;;;;;;;5.56;66.68;99228.88;4871119;29;20073;-62
2023/01/17 02:09:24;;;;;;;104.80;53.00;;;;;;;5.46;67.13;99230.75;4873916;29;20076;-61
2023/01/17 02:12:08;;;;;;;111.03;54.78;;;;;;;5.55;67.55;99235.09;4864526;29;20057;-61
2023/01/17 02:14:56;;;;;;;119.35;56.38;;;;;;;5.69;66.15;99242.50;4874058;29;20053;-61
2023/01/17 02:18:13;;;;;;;111.93;57.75;;;;;;;5.65;66.08;99246.41;4866095;29;20059;-62
2023/01/17 02:21:15;;;;;;;133.68;60.10;;;;;;;5.79;65.99;99242.44;4847218;29;20049;-60
2023/01/17 02:24:37;;;;;;;134.07;59.88;;;;;;;5.70;66.40;99238.91;4854038;29;20515;-60
2023/01/17 02:27:48;;;;;;;143.55;60.95;;;;;;;5.89;65.78;99252.91;4840255;29;20746;-60
2023/01/17 02:30:51;;;;;;;130.63;62.85;;;;;;;5.77;64.37;99260.97;4852161;29;20868;-61
2023/01/17 02:34:13;;;;;;;143.80;64.20;;;;;;;6.11;65.24;99258.53;4853705;29;20088;-62
2023/01/17 02:37:23;;;;;;;125.63;64.10;;;;;;;6.07;64.38;99266.88;4869192;29;20561;-61
2023/01/17 02:40:36;;;;;;;130.98;61.85;;;;;;;6.12;63.75;99262.81;4867094;29;20081;-61
2023/01/17 02:43:27;;;;;;;134.05;65.85;;;;;;;6.14;64.26;99268.78;4858874;29;20061;-62
2023/01/17 02:46:25;;;;;;;137.65;63.50;;;;;;;6.51;63.66;99276.47;4863801;29;20450;-62
2023/01/17 02:49:17;;;;;;;135.48;62.60;;;;;;;6.44;63.91;99280.69;4868618;29;20045;-62
2023/01/17 02:52:38;;;;;;;124.93;64.32;;;;;;;6.62;63.13;99288.56;4847280;29;20073;-61
2023/01/17 02:55:33;;;;;;;130.82;64.80;;;;;;;6.68;63.64;99296.66;4852588;29;20112;-61
2023/01/17 02:58:28;;;;;;;126.18;64.05;;;;;;;6.83;63.56;99286.41;4852413;29;20042;-61
2023/01/17 03:01:48;;;;;;;126.13;62.30;;;;;;;6.89;62.73;99300.78;4853861;29;20054;-63
2023/01/17 03:05:04;;;;;;;139.90;65.75;;;;;;;6.95;62.44;99295.69;4853256;29;20068;-62
2023/01/17 03:07:54;;;;;;;143.00;60.42;;;;;;;7.33;61.33;99304.16;4853032;29;20057;-63
2023/01/17 03:10:40;;;;;;;135.25;63.50;;;;;;;7.32;60.21;99305.13;4855363;29;20061;-62
2023/01/17 03:13:29;;;;;;;133.85;62.40;;;;;;;7.47;59.21;99300.94;4854338;29;20117;-61
2023/01/17 03:16:19;;;;;;;133.15;58.42;;;;;;;7.75;59.07;99299.72;4853711;29;20141;-61
2023/01/17 03:19:08;;;;;;;132.98;57.10;;;;;;;7.93;57.14;99303.06;4853364;29;20120;-64
2023/01/17 03:21:50;;;;;;;128.48;55.92;;;;;;;8.21;55.47;99300.16;4852659;29;20057;-60
2023/01/17 03:24:39;;;;;;;138.25;58.42;;;;;;;8.36;54.25;99309.97;4854734;29;20101;-64
2023/01/17 03:27:21;;;;;;;137.73;57.28;;;;;;;8.68;56.40;99309.13;4855786;29;20053;-62
2023/01/17 03:30:11;;;;;;;138.10;57.33;;;;;;;9.48;52.87;99317.91;4852986;29;20145;-62
2023/01/17 03:32:53;;;;;;;;;;;;;;;10.43;48.75;99316.81;4854480;29;20053;-63
2023/01/17 03:35:44;;;;;;;121.95;54.05;;;;;;;11.30;46.01;99304.75;4851702;29;19999;-60
2023/01/17 03:38:36;;;;;;;116.90;54.58;;;;;;;12.09;45.17;99309.28;4852450;29;20152;-62
2023/01/17 03:41:31;;;;;;;115.20;55.08;;;;;;;12.45;44.64;99313.75;4849846;29;20061;-63
2023/01/17 03:44:07;;;;;;;114.53;52.15;;;;;;;12.87;41.81;99318.22;4858507;29;20114;-62
2023/01/17 03:47:02;;;;;;;103.43;51.97;;;;;;;13.20;41.91;99329.97;4863771;29;20152;-62
2023/01/17 03:49:51;;;;;;;108.47;51.75;;;;;;;13.90;39.92;99331.59;4864757;29;20056;-62
2023/01/17 03:52:40;;;;;;;102.47;49.45;;;;;;;14.14;43.01;99336.41;4871433;29;20136;-62
2023/01/17 03:55:22;;;;;;;112.32;49.85;;;;;;;14.68;40.38;99338.22;4834647;29;20050;-61
2023/01/17 03:58:11;;;;;;;106.47;50.33;;;;;;;14.94;39.01;99338.25;4865520;29;20690;-61
2023/01/17 04:01:01;;;;;;;91.88;44.40;;;;;;;15.08;37.60;99336.38;4855046;29;20063;-62
2023/01/17 04:03:54;;;;;;;84.47;45.97;;;;;;;15.39;34.79;99339.25;4864805;29;20064;-61
2023/01/17 04:06:46;;;;;;;89.03;43.75;;;;;;;16.19;34.44;99343.34;4850559;29;20105;-62
2023/01/17 04:09:32;;;;;;;90.07;42.47;;;;;;;16.33;38.05;99360.13;4852160;29;20053;-60
2023/01/17 04:12:21;;;;;;;86.22;40.92;;;;;;;16.75;35.25;99361.34;4852308;29;20049;-61
2023/01/17 04:15:03;;;;;;;81.15;36.72;;;;;;;17.32;31.88;99369.16;4867346;29;20112;-62
2023/01/17 04:17:58;;;;;;;77.68;38.30;;;;;;;17.48;31.65;99360.53;4854549;29;20057;-61
2023/01/17 04:20:47;;;;;;;73.97;38.08;;;;;;;17.57;30.05;99373.66;4860590;29;20049;-62
2023/01/17 04:23:36;;;;;;;69.28;35.58;;;;;;;17.18;30.78;99375.66;4868842;29;20080;-62
2023/01/17 04:26:18;;;;;;;63.15;34.20;;;;;;;17.63;28.65;99384.34;4863006;29;20088;-61
2023/01/17 04:29:07;;;;;;;55.45;32.08;;;;;;;17.93;26.63;99374.53;4851797;29;20497;-64
2023/01/17 04:31:56;;;;;;;52.72;29.13;;;;;;;18.44;26.61;99388.56;4851797;29;20121;-63
2023/01/17 04:34:45;;;;;;;56.85;31.10;;;;;;;17.88;27.31;99386.94;4850696;29;20053;-63
2023/01/17 04:37:41;;;;;;;61.47;30.60;;;;;;;18.57;25.00;99393.78;4860532;29;20075;-63
2023/01/17 04:40:17;;;;;;;58.58;30.45;;;;;;;18.92;26.22;99393.91;4849751;29;20057;-66
2023/01/17 04:43:06;;;;;;;49.50;28.07;;;;;;;18.33;25.64;99403.56;4851032;29;20725;-63
2023/01/17 04:45:49;;;;;;;46.05;25.77;;;;;;;17.93;24.48;99403.19;4858250;29;20184;-63
2023/01/17 04:48:44;;;;;;;55.40;26.55;;;;;;;17.89;26.23;99408.19;4861993;29;20045;-66
2023/01/17 04:51:20;;;;;;;52.42;26.83;;;;;;;18.07;24.84;99407.38;4858801;29;20472;-64
2023/01/17 04:54:08;;;;;;;51.08;28.20;;;;;;;18.00;26.48;99408.50;4862130;29;20517;-66
2023/01/17 04:56:50;;;;;;;54.78;27.13;;;;;;;18.28;25.79;99411.44;4862868;29;20347;-63
2023/01/17 04:59:39;;;;;;;48.58;24.75;;;;;;;18.56;24.54;99409.06;4862275;29;20056;-64
2023/01/17 05:02:21;;;;;;;46.22;25.17;;;;;;;18.29;24.00;99408.56;4865319;29;20037;-64
2023/01/17 05:05:16;;;;;;;51.95;26.50;;;;;;;17.89;26.32;99408.19;4861064;29;20041;-66
2023/01/17 05:07:56;;;;;;;50.13;25.90;;;;;;;17.74;25.25;99417.63;4865126;29;20088;-64
2023/01/17 05:10:46;;;;;;;50.92;27.42;;;;;;;18.20;26.27;99412.59;4861329;29;20475;-64
2023/01/17 05:13:35;;;;;;;52.42;27.77;;;;;;;18.47;26.63;99418.44;4871648;29;20052;-65
2023/01/17 05:16:18;;;;;;;54.63;28.35;;;;;;;17.97;24.35;99428.50;4870545;29;20499;-63
2023/01/17 05:19:07;;;;;;;56.53;27.67;;;;;;;18.27;24.15;99417.88;4855633;29;20041;-67
2023/01/17 05:21:49;;;;;;;51.88;27.25;;;;;;;18.68;24.71;99417.97;4856080;29;20049;-63
2023/01/17 05:24:38;;;;;;;57.45;25.42;;;;;;;18.44;25.28;99418.91;4873115;29;20076;-60
2023/01/17 05:27:20;;;;;;;46.67;25.65;;;;;;;17.86;23.68;99419.34;4851297;29;20072;-60
2023/01/17 05:30:09;;;;;;;41.97;21.00;;;;;;;18.40;23.04;99410.50;4853382;29;20133;-61
2023/01/17 05:32:58;;;;;;;46.50;24.90;;;;;;;18.20;24.13;99409.06;4865056;29;20080;-60
2023/01/17 05:35:34;;;;;;;35.45;22.35;;;;;;;18.27;23.78;99413.34;4845245;29;20060;-60
2023/01/17 05:38:22;;;;;;;41.47;22.38;;;;;;;18.27;24.34;99416.03;4836226;29;20142;-60
2023/01/17 05:41:04;;;;;;;37.75;20.88;;;;;;;18.15;23.09;99411.59;4822160;29;20054;-62
2023/01/17 05:43:53;;;;;;;32.80;19.25;;;;;;;17.93;23.40;99409.38;4870748;29;20525;-61
2023/01/17 05:46:35;;;;;;;35.05;19.85;;;;;;;18.02;23.18;99406.38;4867670;29;20122;-61
2023/01/17 05:49:30;;;;;;;50.03;23.55;;;;;;;18.46;21.28;99403.38;4842682;29;20145;-65
2023/01/17 05:52:06;;;;;;;41.78;22.88;;;;;;;18.40;22.77;99404.31;4853687;29;20061;-63
2023/01/17 05:54:54;;;;;;;43.08;22.20;;;;;;;18.31;22.29;99395.75;4855553;29;20045;-65
2023/01/17 05:57:36;;;;;;;37.70;20.33;;;;;;;18.37;20.87;99397.50;4840101;29;20046;-64
2023/01/17 06:00:25;;;;;;;40.50;20.98;;;;;;;18.43;21.87;99395.81;4848200;29;20273;-63
2023/01/17 06:03:07;;;;;;;41.30;19.17;;;;;;;18.45;21.17;99393.72;4855389;29;20045;-63
2023/01/17 06:06:02;;;;;;;34.53;20.30;;;;;;;19.04;22.41;99384.84;4854539;29;20449;-64
2023/01/17 06:08:38;;;;;;;35.40;20.70;;;;;;;19.23;20.39;99380.22;4852436;29;20053;-62
2023/01/17 06:11:32;;;;;;;33.88;17.98;;;;;;;19.11;20.67;99382.06;4823072;29;20145;-61
2023/01/17 06:14:08;;;;;;;26.88;16.42;;;;;;;19.26;20.73;99380.56;4841632;29;20053;-61
2023/01/17 06:16:56;;;;;;;30.08;16.77;;;;;;;18.65;19.89;99372.81;4854572;29;20133;-62
2023/01/17 06:19:38;;;;;;;27.60;15.68;;;;;;;18.71;20.59;99377.28;4851143;29;20049;-62
2023/01/17 06:22:27;;;;;;;33.47;15.93;;;;;;;18.61;19.92;99374.34;4849258;29;20050;-61
2023/01/17 06:25:09;;;;;;;28.40;18.02;;;;;;;18.54;20.54;99373.63;4838503;29;20156;-60
2023/01/17 06:28:07;;;;;;;28.75;17.75;;;;;;;19.35;20.51;99372.97;4835427;29;20418;-61
2023/01/17 06:30:43;;;;;;;31.85;17.27;;;;;;;19.01;18.58;99369.19;4848454;29;20529;-60
2023/01/17 06:33:32;;;;;;;33.63;18.40;;;;;;;19.79;21.29;99365.38;4834656;29;20062;-62
2023/01/17 06:36:23;;;;;;;31.52;17.67;;;;;;;19.41;19.54;99345.19;4854040;29;20068;-62
2023/01/17 06:39:05;;;;;;;33.53;16.58;;;;;;;19.36;19.49;99341.56;4854377;29;20056;-62
2023/01/17 06:41:55;;;;;;;38.53;17.48;;;;;;;19.79;19.56;99333.13;4852114;29;20117;-62
2023/01/17 06:44:37;;;;;;;33.05;18.15;;;;;;;19.76;20.58;99328.25;4852242;29;20057;-62
2023/01/17 06:47:26;;;;;;;32.50;16.98;;;;;;;19.84;21.19;99325.19;4823194;29;20399;-62
2023/01/17 06:50:15;;;;;;;24.55;15.80;;;;;;;19.47;20.80;99308.53;4851481;29;20099;-63
2023/01/17 06:53:06;;;;;;;72.35;16.98;;;;;;;19.69;20.40;99304.97;4818240;29;20054;-61
2023/01/17 06:55:58;;;;;;;29.30;14.02;;;;;;;19.44;19.51;99296.38;4834938;29;20102;-62
2023/01/17 06:58:41;;;;;;;27.33;14.27;;;;;;;19.38;20.59;99283.88;4833786;29;20073;-62
2023/01/17 07:01:30;;;;;;;28.85;14.60;;;;;;;19.47;20.43;99270.94;4849307;29;20579;-60
2023/01/17 07:04:19;;;;;;;24.30;14.45;;;;;;;19.26;21.69;99272.31;4847188;29;20059;-60
2023/01/17 07:07:01;;;;;;;21.98;14.20;;;;;;;19.08;20.62;99267.88;4871893;29;20056;-62
2023/01/17 07:09:50;;;;;;;23.70;14.68;;;;;;;19.21;21.31;99266.81;4871291;29;20803;-60
2023/01/17 07:12:32;;;;;;;26.95;13.55;;;;;;;19.34;19.71;99255.03;4856091;29;20145;-60
2023/01/17 07:15:21;;;;;;;22.65;12.77;;;;;;;19.30;21.55;99260.03;4869126;29;20049;-60
2023/01/17 07:18:22;;;;;;;31.88;13.48;;;;;;;19.30;21.32;99254.66;4867419;29;20073;-60
2023/01/17 07:20:58;;;;;;;35.67;11.65;;;;;;;19.05;19.54;99246.03;4867726;29;20049;-60
2023/01/17 07:23:47;;;;;;;20.05;11.00;;;;;;;18.95;20.17;99248.50;4857398;29;20497;-61
2023/01/17 07:26:29;;;;;;;18.52;10.80;;;;;;;18.72;20.46;99239.38;4871551;29;20113;-61
2023/01/17 07:29:18;;;;;;;20.80;9.98;;;;;;;18.88;21.06;99243.25;4871175;29;20084;-61
2023/01/17 07:32:02;;;;;;;22.75;10.45;;;;;;;18.88;20.85;99231.69;4861042;29;20125;-63
2023/01/17 07:34:50;;;;;;;18.60;10.05;;;;;;;19.16;21.39;99226.44;4864821;29;20045;-62
2023/01/17 07:37:39;;;;;;;16.73;9.00;;;;;;;19.04;21.60;99230.97;4865756;29;20064;-62
2023/01/17 07:40:22;;;;;;;18.45;10.05;;;;;;;18.84;20.87;99229.47;4852340;29;20486;-63
2023/01/17 07:43:12;;;;;;;22.65;11.43;;;;;;;19.00;20.65;99219.91;4833640;29;20050;-62
2023/01/17 07:46:01;;;;;;;23.27;9.98;;;;;;;18.99;21.97;99218.25;4850913;29;20643;-62
2023/01/17 07:48:56;;;;;;;24.02;8.07;;;;;;;19.17;21.42;99220.81;4852127;29;20049;-61
2023/01/17 07:51:32;;;;;;;11.48;6.47;;;;;;;19.20;20.19;99212.31;4859877;29;20488;-61
2023/01/17 07:54:26;;;;;;;13.80;6.90;;;;;;;18.88;20.48;99212.91;4855492;29;20049;-62
2023/01/17 07:57:02;;;;;;;19.10;7.38;;;;;;;18.84;18.96;99213.38;4865047;29;20052;-64
2023/01/17 07:59:51;;;;;;;13.02;7.43;;;;;;;18.75;20.25;99208.59;4859329;29;20132;-61
2023/01/17 08:02:33;;;;;;;16.73;7.72;;;;;;;18.57;21.33;99206.81;4870318;29;20055;-62
2023/01/17 08:05:23;;;;;;;19.38;9.65;;;;;;;18.67;21.98;99200.88;4854797;29;20049;-63
2023/01/17 08:08:05;;;;;;;18.73;9.30;;;;;;;19.03;21.09;99205.22;4860937;29;20041;-65
2023/01/17 08:11:03;;;;;;;18.55;10.07;;;;;;;19.09;20.35;99194.34;4863507;29;20121;-63
2023/01/17 08:13:40;;;;;;;20.70;10.95;;;;;;;19.11;23.20;99186.88;4867965;29;20570;-63
2023/01/17 08:16:29;;;;;;;34.70;12.68;;;;;;;19.11;21.29;99178.00;4852845;29;20133;-62
2023/01/17 08:19:18;;;;;;;25.90;12.65;;;;;;;19.07;21.85;99174.97;4870287;29;20049;-64
2023/01/17 08:22:00;;;;;;;29.40;14.10;;;;;;;19.30;23.32;99172.22;4872531;29;20049;-63
2023/01/17 08:24:49;;;;;;;24.50;14.70;;;;;;;19.07;23.51;99171.47;4863786;29;20053;-62
2023/01/17 08:27:31;;;;;;;29.88;16.05;;;;;;;19.32;22.26;99172.00;4867850;29;20060;-63
2023/01/17 08:30:20;;;;;;;42.35;15.68;;;;;;;18.95;21.63;99168.78;4846614;29;20045;-63
2023/01/17 08:33:02;;;;;;;30.10;16.83;;;;;;;18.96;22.79;99165.06;4831706;29;20053;-63
2023/01/17 08:36:01;;;;;;;29.45;17.00;;;;;;;18.71;22.54;99165.31;4818638;29;20045;-61
2023/01/17 08:38:43;;;;;;;33.63;18.90;;;;;;;18.56;22.21;99166.81;4868193;29;20719;-61
2023/01/17 08:41:32;;;;;;;33.78;17.48;;;;;;;18.65;23.12;99155.50;4865708;29;20565;-62
2023/01/17 08:44:14;;;;;;;27.70;16.85;;;;;;;18.54;23.75;99164.38;4832436;29;20061;-62
2023/01/17 08:47:09;;;;;;;33.65;16.30;;;;;;;18.73;23.64;99159.69;4852142;29;20060;-62
2023/01/17 08:49:59;;;;;;;31.08;17.50;;;;;;;18.62;23.21;99155.16;4868135;29;20052;-64
2023/01/17 08:52:48;;;;;;;41.67;18.25;;;;;;;18.64;23.39;99145.81;4860765;29;20049;-64
2023/01/17 08:55:32;;;;;;;31.92;15.55;;;;;;;18.59;23.36;99143.00;4863011;29;20052;-63
2023/01/17 08:58:21;;;;;;;29.02;14.45;;;;;;;18.39;22.54;99140.66;4850883;29;20140;-62
2023/01/17 09:01:11;;;;;;;25.80;13.57;;;;;;;18.39;23.71;99134.47;4835511;29;20530;-63
2023/01/17 09:03:59;;;;;;;26.13;13.75;;;;;;;18.46;24.64;99137.84;4837626;29;20080;-63
2023/01/17 09:06:56;;;;;;;32.03;12.18;;;;;;;18.22;22.94;99130.84;4855950;29;20056;-64
2023/01/17 09:09:32;;;;;;;21.30;12.65;;;;;;;18.35;24.43;99125.25;4854382;29;20052;-64
2023/01/17 09:12:21;;;;;;;21.90;12.63;;;;;;;18.36;23.27;99127.72;4864417;29;20077;-63
2023/01/17 09:15:13;;;;;;;22.52;12.05;;;;;;;18.35;24.61;99125.25;4849858;29;20045;-64
2023/01/17 09:17:56;;;;;;;23.95;12.25;;;;;;;18.53;24.45;99124.34;4867575;29;20551;-63
2023/01/17 09:20:45;;;;;;;25.52;11.77;;;;;;;18.44;24.51;99126.53;4859133;29;20602;-62
2023/01/17 09:23:29;;;;;;;30.50;12.02;;;;;;;18.41;24.17;99133.16;4858653;29;20200;-62
2023/01/17 09:26:33;;;;;;;22.13;10.98;;;;;;;18.31;23.67;99130.28;4853510;29;20088;-63
2023/01/17 09:29:17;;;;;;;20.88;9.73;;;;;;;18.22;22.45;99128.16;4840675;29;20045;-63
2023/01/17 09:32:06;;;;;;;14.85;7.68;;;;;;;18.07;22.17;99125.09;4843973;29;20053;-62
2023/01/17 09:34:48;;;;;;;19.38;8.45;;;;;;;18.08;22.50;99126.72;4852661;29;20045;-62
2023/01/17 09:37:37;;;;;;;17.42;8.45;;;;;;;17.93;22.54;99127.97;4852015;29;20144;-62
2023/01/17 09:40:23;;;;;;;21.65;8.27;;;;;;;17.96;23.00;99124.03;4860708;29;20054;-62
2023/01/17 09:43:27;;;;;;;16.87;7.60;;;;;;;17.90;22.16;99116.91;4850309;29;20053;-62
2023/01/17 09:46:26;;;;;;;14.85;7.80;;;;;;;17.90;23.19;99115.03;4851517;29;20871;-63
2023/01/17 09:49:28;;;;;;;18.23;7.63;;;;;;;17.80;23.49;99109.41;4857025;29;20132;-62
2023/01/17 09:52:06;;;;;;;16.95;8.27;;;;;;;17.83;24.40;99113.50;4872780;29;20064;-64
2023/01/17 09:54:55;;;;;;;19.75;8.50;;;;;;;17.72;24.52;99104.38;4872526;29;20160;-63
2023/01/17 09:58:01;;;;;;;14.63;7.72;;;;;;;17.85;24.85;99108.72;4871975;29;20347;-62
2023/01/17 10:00:59;;;;;;;21.60;7.85;;;;;;;18.00;26.55;99102.94;4860638;29;20061;-62
2023/01/17 10:04:13;;;;;;;23.15;9.98;;;;;;;17.80;24.53;99098.69;4855724;29;20363;-63
2023/01/17 10:07:32;;;;;;;17.83;8.85;;;;;;;17.67;25.64;99100.75;4823305;29;20057;-62
2023/01/17 10:10:53;;;;;;;21.25;8.30;;;;;;;17.79;25.12;99107.78;4856238;29;20069;-62
2023/01/17 10:14:03;;;;;;;19.65;8.20;;;;;;;17.70;26.17;99100.31;4854361;29;20697;-62
2023/01/17 10:17:08;;;;;;;22.05;9.00;;;;;;;17.78;26.36;99099.97;4837771;29;20440;-62
2023/01/17 10:20:02;;;;;;;16.73;8.45;;;;;;;17.86;26.28;99096.97;4840724;29;20057;-62
2023/01/17 10:23:02;;;;;;;20.20;8.65;;;;;;;18.02;25.08;99100.84;4859266;29;20136;-62
2023/01/17 10:25:52;;;;;;;18.27;7.97;;;;;;;17.92;25.87;99094.16;4857347;29;20053;-63
2023/01/17 10:28:53;;;;;;;13.32;7.28;;;;;;;18.08;25.74;99099.91;4867338;29;20388;-62
2023/01/17 10:31:50;;;;;;;12.63;7.40;;;;;;;17.96;25.96;99094.56;4856753;29;20068;-64
2023/01/17 10:34:50;;;;;;;18.67;8.27;;;;;;;17.93;26.43;99087.78;4850177;29;20053;-64
2023/01/17 10:37:41;;;;;;;20.42;8.32;;;;;;;17.80;25.24;99081.78;4865388;29;20053;-64
2023/01/17 10:40:27;;;;;;;16.35;7.93;;;;;;;17.56;25.95;99088.94;4856985;29;20099;-64
2023/01/17 10:43:22;;;;;;;20.17;8.75;;;;;;;17.65;26.12;99079.56;4866642;29;20081;-64
2023/01/17 10:46:04;;;;;;;17.80;7.93;;;;;;;17.81;26.50;99078.06;4835607;29;20054;-63
2023/01/17 10:49:02;;;;;;;23.35;8.20;;;;;;;17.79;27.15;99080.97;4855467;29;20056;-64
2023/01/17 10:51:48;;;;;;;18.88;10.45;;;;;;;17.42;26.29;99090.16;4873400;29;20055;-63
2023/01/17 10:54:45;;;;;;;13.20;6.80;;;;;;;17.64;28.74;99088.63;4861588;29;20136;-63
2023/01/17 10:57:30;;;;;;;18.17;7.68;;;;;;;17.65;28.10;99082.25;4854432;29;20061;-63
2023/01/17 11:00:45;;;;;;;16.52;8.10;;;;;;;17.52;28.22;99090.44;4835510;29;20061;-63
2023/01/17 11:03:34;;;;;;;19.20;8.15;;;;;;;17.29;28.94;99088.47;4854028;29;20492;-63
2023/01/17 11:06:26;;;;;;;22.20;8.45;;;;;;;17.47;28.33;99088.44;4819367;29;20666;-64
2023/01/17 11:09:23;;;;;;;19.20;8.57;;;;;;;17.24;27.36;99090.19;4836260;29;20222;-67
2023/01/17 11:12:14;;;;;;;17.42;8.05;;;;;;;17.23;27.71;99088.56;4821685;29;20445;-63
2023/01/17 11:15:30;;;;;;;19.23;8.98;;;;;;;16.97;27.99;99079.81;4850987;29;20049;-64
2023/01/17 11:18:19;;;;;;;22.60;9.15;;;;;;;17.26;28.13;99080.09;4862140;29;20048;-63
2023/01/17 11:21:28;;;;;;;22.98;8.63;;;;;;;17.21;29.00;99086.13;4865559;29;20064;-63
2023/01/17 11:24:18;;;;;;;20.27;8.38;;;;;;;17.23;28.43;99078.66;4871964;29;20048;-63
2023/01/17 11:27:10;;;;;;;13.60;8.45;;;;;;;17.00;27.56;99087.38;4871204;29;20126;-62
2023/01/17 11:30:17;;;;;;;21.52;8.27;;;;;;;17.01;26.95;99078.31;4868471;29;20614;-62
2023/01/17 11:33:08;;;;;;;22.55;8.52;;;;;;;17.03;29.23;99086.97;4865924;29;20754;-62
2023/01/17 11:35:57;;;;;;;22.58;7.80;;;;;;;16.89;30.62;99081.97;4853764;29;20129;-62
2023/01/17 11:38:40;;;;;;;19.60;7.55;;;;;;;16.77;29.01;99092.63;4858703;29;20045;-64
2023/01/17 11:41:48;;;;;;;18.67;7.05;;;;;;;16.68;28.74;99093.13;4863084;29;20053;-62
2023/01/17 11:44:39;;;;;;;22.02;8.82;;;;;;;16.48;30.29;99098.63;4846250;29;20117;-63
2023/01/17 11:47:21;;;;;;;15.18;8.57;;;;;;;16.53;31.99;99109.50;4837050;29;20476;-64
2023/01/17 11:50:30;;;;;;;17.27;8.63;;;;;;;16.30;29.81;99118.13;4848946;29;20140;-62
2023/01/17 11:53:18;;;;;;;19.42;8.35;;;;;;;16.27;30.58;99117.75;4856940;29;20049;-62
2023/01/17 11:56:23;;;;;;;16.25;8.23;;;;;;;16.18;29.27;99117.22;4864110;29;20056;-60
2023/01/17 11:59:29;;;;;;;24.13;8.50;;;;;;;16.16;30.38;99122.75;4863887;29;20053;-64
2023/01/17 12:02:52;;;;;;;22.35;9.10;;;;;;;16.14;30.81;99118.69;4823641;29;20653;-64
2023/01/17 12:06:07;;;;;;;15.20;8.98;;;;;;;16.01;32.06;99113.44;4803842;29;20045;-63
2023/01/17 12:09:10;;;;;;;24.35;8.68;;;;;;;15.93;31.33;99117.19;4853150;29;20060;-62
2023/01/17 12:15:39;;;;;;;24.00;9.50;;;;;;;15.55;34.08;99121.75;4846197;29;20648;-63
2023/01/17 12:18:42;;;;;;;30.65;10.18;;;;;;;15.39;34.89;99122.22;4834529;29;20759;-63
2023/01/17 12:21:40;;;;;;;26.48;9.90;;;;;;;15.24;36.22;99117.16;4870886;29;20448;-63
2023/01/17 12:24:54;;;;;;;28.33;9.73;;;;;;;15.06;36.07;99117.84;4866801;29;20121;-62
2023/01/17 12:28:10;;;;;;;25.45;10.43;;;;;;;14.86;37.91;99126.94;4834062;29;20052;-62
2023/01/17 12:31:33;;;;;;;34.97;11.32;;;;;;;14.68;37.79;99135.59;4848822;29;20057;-64
2023/01/17 12:34:21;;;;;;;35.58;11.32;;;;;;;14.63;40.59;99138.06;4861530;29;20207;-62
2023/01/17 12:37:35;;;;;;;42.22;12.85;;;;;;;14.49;39.44;99123.09;4871180;29;20053;-63
2023/01/17 12:40:43;;;;;;;47.13;14.77;;;;;;;14.33;40.13;99132.31;4869032;29;20859;-62
2023/01/17 12:43:43;;;;;;;39.97;14.48;;;;;;;14.11;42.01;99139.72;4869316;29;20052;-62
2023/01/17 12:47:01;;;;;;;38.55;14.93;;;;;;;13.98;41.43;99139.69;4856624;29;20065;-62
2023/01/17 12:50:25;;;;;;;43.75;15.52;;;;;;;13.72;42.43;99151.09;4864885;29;20509;-63
2023/01/17 12:53:40;;;;;;;50.35;15.10;;;;;;;13.57;43.70;99160.28;4870610;29;20490;-63
2023/01/17 12:56:44;;;;;;;46.45;16.25;;;;;;;13.42;44.09;99155.13;4862764;29;20077;-63
2023/01/17 13:00:10;;;;;;;44.88;16.02;;;;;;;13.11;44.17;99163.56;4848570;29;20065;-63
2023/01/17 13:03:46;;;;;;;36.65;14.75;;;;;;;12.87;45.78;99174.69;4821572;29;20054;-63
2023/01/17 13:06:32;;;;;;;34.42;13.98;;;;;;;13.21;45.89;99181.84;4801296;29;20153;-63
2023/01/17 13:09:22;;;;;;;54.20;16.80;;;;;;;13.09;45.88;99178.06;4867637;29;20056;-63
2023/01/17 13:12:20;;;;;;;45.28;15.15;;;;;;;12.94;46.04;99188.81;4855303;29;20049;-62
2023/01/17 13:15:18;;;;;;;44.45;18.02;;;;;;;12.61;45.72;99185.97;4863277;29;20059;-64
2023/01/17 13:18:24;;;;;;;41.42;18.80;;;;;;;12.40;46.74;99184.16;4864447;29;20534;-61
2023/01/17 13:21:31;;;;;;;42.92;20.30;;;;;;;12.34;47.68;99194.72;4855296;29;20129;-63
2023/01/17 13:25:03;;;;;;;47.30;20.42;;;;;;;12.30;48.21;99189.00;4855673;29;20160;-63
2023/01/17 13:28:06;;;;;;;51.80;22.42;;;;;;;12.36;48.00;99193.50;4846056;29;20044;-62
2023/01/17 13:31:27;;;;;;;57.60;23.02;;;;;;;12.30;48.93;99196.97;4862248;29;20068;-63
2023/01/17 13:34:16;;;;;;;48.88;23.27;;;;;;;12.52;49.57;99201.19;4855190;29;20109;-63
2023/01/17 13:37:43;;;;;;;48.97;24.45;;;;;;;12.26;49.84;99203.63;4847431;29;20056;-63
2023/01/17 13:40:38;;;;;;;69.63;25.80;;;;;;;11.91;49.58;99209.81;4855963;29;20057;-63
2023/01/17 13:43:31;;;;;;;60.47;27.17;;;;;;;12.11;50.04;99200.25;4866576;29;20056;-62
2023/01/17 13:46:20;;;;;;;73.60;30.13;;;;;;;11.93;51.87;99205.16;4863768;29;20479;-63
2023/01/17 13:49:36;;;;;;;74.68;27.40;;;;;;;11.77;51.16;99208.06;4841887;29;20046;-63
2023/01/17 13:52:31;;;;;;;72.18;30.45;;;;;;;11.91;51.31;99210.66;4837231;29;20065;-63
2023/01/17 13:55:07;;;;;;;72.38;32.50;;;;;;;11.68;52.25;99215.28;4841614;29;20053;-63
2023/01/17 13:58:02;;;;;;;78.10;33.28;;;;;;;11.59;52.87;99205.78;4854287;29;20554;-63
2023/01/17 14:00:44;;;;;;;69.22;31.92;;;;;;;11.50;52.21;99207.72;4849575;29;20053;-63
2023/01/17 14:03:51;;;;;;;71.55;31.83;;;;;;;11.56;53.39;99206.16;4837382;29;20630;-63
2023/01/17 14:06:43;;;;;;;75.70;32.20;;;;;;;11.49;53.85;99211.38;4837083;29;20056;-63
2023/01/17 14:09:49;;;;;;;91.63;32.60;;;;;;;11.30;53.91;99213.78;4837255;29;20165;-63
2023/01/17 14:12:30;;;;;;;93.97;33.55;;;;;;;11.31;53.60;99221.56;4840882;29;20094;-63
2023/01/17 14:15:25;;;;;;;73.32;30.38;;;;;;;11.40;54.40;99232.88;4838690;29;20133;-63
2023/01/17 14:18:44;;;;;;;77.70;31.73;;;;;;;11.47;53.56;99228.47;4826967;29;20054;-63
2023/01/17 14:21:39;;;;;;;73.78;30.20;;;;;;;11.27;54.90;99237.03;4840826;29;20061;-62
2023/01/17 14:24:17;;;;;;;93.57;34.20;;;;;;;11.09;54.98;99241.84;4836336;29;20061;-63
2023/01/17 14:27:22;;;;;;;90.75;35.78;;;;;;;11.42;53.48;99238.84;4836198;29;20137;-63
2023/01/17 14:30:22;;;;;;;103.38;40.45;;;;;;;11.41;55.48;99251.28;4836639;29;20550;-63
2023/01/17 14:33:29;;;;;;;83.43;39.00;;;;;;;11.34;56.52;99252.16;4846597;29;20050;-63
2023/01/17 14:36:29;;;;;;;86.53;38.95;;;;;;;11.32;55.15;99252.38;4836145;29;20432;-63
2023/01/17 14:39:22;;;;;;;100.00;42.38;;;;;;;11.23;56.43;99264.09;4836344;29;20560;-63